Time;durP1;ratioP1;P1;durP2;ratioP2;P2;SDS_P1;SDS_P2;PMS_P1;PMS_P2;Temp;Humidity;BMP_temperature;BMP_pressure;BME280_temperature;BME280_humidity;BME280_pressure;Samples;Min_cycle;Max_cycle;Signal;HPM_P1;HPM_P2
2023/01/07 00:00:47;;;;;;;3.75;2.55;;;;;;;;;;4968611;28;20452;-46
2023/01/07 00:03:15;;;;;;;3.78;2.65;;;;;;;;;;4968510;28;20030;-46
2023/01/07 00:05:41;;;;;;;2.83;1.98;;;;;;;;;;4951128;28;20030;-45
2023/01/07 00:08:07;;;;;;;3.20;2.60;;;;;;;;;;4968728;28;20027;-46
2023/01/07 00:10:34;;;;;;;3.92;2.40;;;;;;;;;;4967990;28;20030;-44
2023/01/07 00:13:00;;;;;;;2.65;2.10;;;;;;;;;;4968646;28;20510;-47
2023/01/07 00:15:27;;;;;;;2.70;2.22;;;;;;;;;;4968837;28;20078;-46
2023/01/07 00:17:53;;;;;;;3.60;2.60;;;;;;;;;;4928092;28;1193259;-48
2023/01/07 00:20:19;;;;;;;3.60;2.75;;;;;;;;;;4969493;28;20099;-46
2023/01/07 00:22:45;;;;;;;3.60;2.53;;;;;;;;;;4968670;28;20041;-45
2023/01/07 00:25:11;;;;;;;3.30;2.55;;;;;;;;;;4969468;28;20406;-47
2023/01/07 00:27:37;;;;;;;2.50;2.20;;;;;;;;;;4969555;28;20055;-46
2023/01/07 00:30:03;;;;;;;3.33;2.30;;;;;;;;;;4969583;28;20022;-45
2023/01/07 00:35:28;;;;;;;3.13;2.35;;;;;;;;;;4935900;28;20039;-45
2023/01/07 00:37:55;;;;;;;3.40;1.80;;;;;;;;;;4969220;28;20030;-44
2023/01/07 00:40:21;;;;;;;2.50;1.83;;;;;;;;;;4951745;28;20418;-46
2023/01/07 00:42:53;;;;;;;2.88;2.05;;;;;;;;;;4936010;28;20035;-47
2023/01/07 00:45:24;;;;;;;3.10;2.17;;;;;;;;;;4969523;28;20058;-45
2023/01/07 00:47:52;;;;;;;3.53;2.30;;;;;;;;;;4968723;28;20033;-45
2023/01/07 00:50:20;;;;;;;2.28;1.90;;;;;;;;;;4968091;28;20081;-49
2023/01/07 00:52:46;;;;;;;2.80;2.10;;;;;;;;;;4968759;28;20566;-45
2023/01/07 00:55:13;;;;;;;2.70;1.73;;;;;;;;;;4969321;28;20082;-45
2023/01/07 00:57:41;;;;;;;2.65;2.22;;;;;;;;;;4969081;28;20122;-46
2023/01/07 01:00:08;;;;;;;3.15;2.28;;;;;;;;;;4969110;28;20537;-46
2023/01/07 01:02:35;;;;;;;2.30;1.70;;;;;;;;;;4968542;28;20093;-47
2023/01/07 06:12:38;;;;;;;4.13;2.80;;;;;;;;;;4965315;28;20042;-46
2023/01/07 06:15:06;;;;;;;3.58;2.88;;;;;;;;;;4968483;28;20039;-46
2023/01/07 06:17:32;;;;;;;6.85;3.30;;;;;;;;;;4968895;28;20036;-45
2023/01/07 06:19:58;;;;;;;4.93;3.30;;;;;;;;;;4968997;28;20642;-46
2023/01/07 06:22:25;;;;;;;4.60;3.20;;;;;;;;;;4968632;28;20026;-46
2023/01/07 06:24:51;;;;;;;4.70;2.63;;;;;;;;;;4967904;28;20031;-45
2023/01/07 06:27:18;;;;;;;5.10;3.15;;;;;;;;;;4967839;28;20030;-46
2023/01/07 06:29:45;;;;;;;4.85;3.15;;;;;;;;;;4968000;28;20031;-48
2023/01/07 06:32:11;;;;;;;3.78;2.83;;;;;;;;;;4968769;28;20027;-46
2023/01/07 06:34:37;;;;;;;4.03;3.13;;;;;;;;;;4968586;28;20171;-46
2023/01/07 06:37:03;;;;;;;6.68;2.80;;;;;;;;;;4968497;28;20060;-45
2023/01/07 06:39:29;;;;;;;4.55;3.10;;;;;;;;;;4968799;28;20031;-46
2023/01/07 06:41:56;;;;;;;6.05;3.00;;;;;;;;;;4968192;28;20118;-46
2023/01/07 06:44:23;;;;;;;5.68;2.95;;;;;;;;;;4967450;28;20085;-45
2023/01/07 06:46:49;;;;;;;3.92;2.38;;;;;;;;;;4968556;28;20031;-45
2023/01/07 06:49:15;;;;;;;4.53;3.10;;;;;;;;;;4968312;28;20474;-48
2023/01/07 06:51:41;;;;;;;4.00;2.95;;;;;;;;;;4968167;28;20027;-46
2023/01/07 06:54:07;;;;;;;4.00;2.80;;;;;;;;;;4968091;28;20034;-50
2023/01/07 06:56:33;;;;;;;5.78;2.58;;;;;;;;;;4966555;28;20027;-45
2023/01/07 06:58:59;;;;;;;2.85;2.30;;;;;;;;;;4966891;28;20129;-46
2023/01/07 07:01:25;;;;;;;4.55;2.03;;;;;;;;;;4966890;28;20038;-46
2023/01/07 07:03:51;;;;;;;3.33;2.15;;;;;;;;;;4969256;28;20065;-46
2023/01/07 07:06:17;;;;;;;4.68;2.75;;;;;;;;;;4969428;28;20023;-47
2023/01/07 07:08:43;;;;;;;3.90;2.22;;;;;;;;;;4969514;28;20073;-47
2023/01/07 07:11:09;;;;;;;2.90;2.15;;;;;;;;;;4969421;28;20034;-45
2023/01/07 07:13:35;;;;;;;2.08;1.75;;;;;;;;;;4969078;28;20462;-45
2023/01/07 07:16:01;;;;;;;4.55;2.72;;;;;;;;;;4974850;28;20132;-47
2023/01/07 07:18:27;;;;;;;3.70;2.17;;;;;;;;;;4988855;28;20030;-45
2023/01/07 07:20:53;;;;;;;2.72;2.10;;;;;;;;;;4969276;28;20038;-45
2023/01/07 07:23:19;;;;;;;2.92;2.25;;;;;;;;;;4969224;28;20134;-46
2023/01/07 07:25:45;;;;;;;2.83;1.90;;;;;;;;;;4967123;28;20576;-47
2023/01/07 07:28:11;;;;;;;3.92;2.20;;;;;;;;;;4968605;28;20109;-46
2023/01/07 07:30:37;;;;;;;2.33;1.95;;;;;;;;;;4971825;28;20117;-46
2023/01/07 07:33:04;;;;;;;4.43;2.50;;;;;;;;;;4969370;28;20108;-49
2023/01/07 07:35:30;;;;;;;3.63;2.28;;;;;;;;;;4967901;28;20027;-46
2023/01/07 07:37:56;;;;;;;3.58;2.25;;;;;;;;;;4969273;28;20054;-46
2023/01/07 07:40:22;;;;;;;4.03;2.40;;;;;;;;;;4969307;28;20058;-46
2023/01/07 07:42:49;;;;;;;3.58;2.40;;;;;;;;;;4969471;28;20081;-46
2023/01/07 07:45:18;;;;;;;2.97;2.13;;;;;;;;;;4971562;28;20035;-47
2023/01/07 07:47:44;;;;;;;4.13;2.67;;;;;;;;;;4971509;28;20034;-46
2023/01/07 07:50:10;;;;;;;3.45;2.38;;;;;;;;;;4971606;28;20037;-47
2023/01/07 07:52:36;;;;;;;2.63;1.83;;;;;;;;;;4970876;28;20077;-45
2023/01/07 07:55:02;;;;;;;4.22;2.28;;;;;;;;;;4971135;28;20049;-44
2023/01/07 07:57:28;;;;;;;3.60;2.28;;;;;;;;;;4968971;28;20034;-48
2023/01/07 07:59:54;;;;;;;3.78;2.20;;;;;;;;;;4971589;28;20521;-48
2023/01/07 08:02:20;;;;;;;4.75;2.70;;;;;;;;;;4969181;28;20114;-45
2023/01/07 08:04:46;;;;;;;5.85;2.20;;;;;;;;;;4988230;28;20026;-47
2023/01/07 08:07:12;;;;;;;4.75;2.28;;;;;;;;;;4980723;28;20429;-45
2023/01/07 08:09:38;;;;;;;6.63;2.65;;;;;;;;;;4972910;28;20477;-46
2023/01/07 08:12:05;;;;;;;3.88;2.42;;;;;;;;;;4972923;28;20042;-51
2023/01/07 08:14:31;;;;;;;3.95;2.38;;;;;;;;;;4973104;28;20043;-47
2023/01/07 08:16:57;;;;;;;3.83;2.17;;;;;;;;;;4972451;28;20038;-45
2023/01/07 08:19:23;;;;;;;4.18;2.30;;;;;;;;;;4970816;28;20511;-45
2023/01/07 08:21:50;;;;;;;5.13;2.20;;;;;;;;;;4971634;28;20031;-46
2023/01/07 08:24:16;;;;;;;3.05;2.17;;;;;;;;;;4970542;28;20206;-50
2023/01/07 08:26:42;;;;;;;4.72;2.20;;;;;;;;;;4972729;28;20019;-46
2023/01/07 08:29:08;;;;;;;4.72;2.40;;;;;;;;;;4972876;28;20540;-46
2023/01/07 08:31:34;;;;;;;4.28;2.42;;;;;;;;;;4971301;28;20441;-45
2023/01/07 08:34:00;;;;;;;5.30;2.22;;;;;;;;;;4970644;28;20034;-46
2023/01/07 08:36:26;;;;;;;4.50;2.00;;;;;;;;;;4971358;28;20055;-50
2023/01/07 08:38:53;;;;;;;4.55;2.20;;;;;;;;;;4971147;28;20042;-46
2023/01/07 08:41:22;;;;;;;2.72;2.10;;;;;;;;;;4971407;28;20430;-47
2023/01/07 08:43:49;;;;;;;3.15;1.73;;;;;;;;;;4971091;28;20027;-47
2023/01/07 08:46:15;;;;;;;2.95;2.00;;;;;;;;;;4971201;28;20066;-50
2023/01/07 08:48:41;;;;;;;3.28;2.05;;;;;;;;;;4970915;28;20074;-45
2023/01/07 08:51:07;;;;;;;3.22;2.35;;;;;;;;;;4971093;28;20585;-47
2023/01/07 08:53:34;;;;;;;3.45;2.10;;;;;;;;;;4971631;28;20035;-46
2023/01/07 08:56:00;;;;;;;3.33;2.00;;;;;;;;;;4972102;28;20034;-47
2023/01/07 08:58:26;;;;;;;2.85;2.03;;;;;;;;;;4971372;28;20054;-45
2023/01/07 09:00:53;;;;;;;3.30;2.30;;;;;;;;;;4970014;28;20066;-48
2023/01/07 09:03:19;;;;;;;3.42;2.00;;;;;;;;;;4965309;28;20433;-47
2023/01/07 09:05:48;;;;;;;3.30;2.00;;;;;;;;;;4966272;28;20658;-46
2023/01/07 09:08:14;;;;;;;4.25;2.50;;;;;;;;;;4971573;28;20118;-48
2023/01/07 09:10:40;;;;;;;2.42;2.08;;;;;;;;;;4969989;28;20073;-46
2023/01/07 09:13:06;;;;;;;5.07;2.47;;;;;;;;;;4970688;28;20518;-45
2023/01/07 09:15:33;;;;;;;3.05;2.03;;;;;;;;;;4969565;28;20030;-45
2023/01/07 09:18:02;;;;;;;4.13;2.17;;;;;;;;;;4970918;28;20482;-48
2023/01/07 09:20:28;;;;;;;4.65;2.20;;;;;;;;;;4970621;28;20524;-44
2023/01/07 09:22:54;;;;;;;2.88;2.25;;;;;;;;;;4965469;28;20039;-47
2023/01/07 09:25:20;;;;;;;4.20;2.20;;;;;;;;;;4962037;28;20414;-49
2023/01/07 09:27:46;;;;;;;4.72;2.45;;;;;;;;;;4981235;28;20433;-46
2023/01/07 09:30:12;;;;;;;3.60;1.90;;;;;;;;;;4989963;28;20077;-46
2023/01/07 09:32:38;;;;;;;3.78;2.15;;;;;;;;;;4970963;28;20073;-46
2023/01/07 09:35:05;;;;;;;3.22;2.10;;;;;;;;;;4970466;28;20034;-46
2023/01/07 09:37:31;;;;;;;3.30;2.33;;;;;;;;;;4970842;28;20054;-45
2023/01/07 09:39:59;;;;;;;3.10;2.13;;;;;;;;;;4968884;28;20022;-46
2023/01/07 09:42:25;;;;;;;5.25;2.60;;;;;;;;;;4981005;28;20070;-47
2023/01/07 09:45:03;;;;;;;3.63;2.20;;;;;;;;;;4980255;28;20022;-46
2023/01/07 09:47:32;;;;;;;6.20;2.38;;;;;;;;;;4970327;28;20027;-47
2023/01/07 09:50:03;;;;;;;3.72;1.90;;;;;;;;;;4970187;28;20019;-47
2023/01/07 09:52:33;;;;;;;4.13;2.50;;;;;;;;;;4970154;28;20031;-49
2023/01/07 09:55:11;;;;;;;3.38;2.10;;;;;;;;;;4974713;28;20109;-45
2023/01/07 09:57:38;;;;;;;3.13;2.22;;;;;;;;;;4974209;28;20406;-47
2023/01/07 10:00:13;;;;;;;4.38;2.08;;;;;;;;;;4968835;28;20033;-47
2023/01/07 10:02:50;;;;;;;3.65;2.10;;;;;;;;;;4970362;28;20027;-46
2023/01/07 10:05:31;;;;;;;3.60;2.05;;;;;;;;;;4963094;28;20053;-47
2023/01/07 10:08:03;;;;;;;3.75;2.35;;;;;;;;;;4985180;28;20163;-46
2023/01/07 10:10:32;;;;;;;3.85;2.22;;;;;;;;;;4986942;28;20019;-48
2023/01/07 10:12:58;;;;;;;4.28;2.45;;;;;;;;;;4970494;28;20168;-48
2023/01/07 10:15:40;;;;;;;3.13;2.10;;;;;;;;;;4970239;28;20093;-47
2023/01/07 10:18:25;;;;;;;5.28;3.35;;;;;;;;;;4952219;28;20409;-48
2023/01/07 10:20:59;;;;;;;5.22;2.80;;;;;;;;;;4958559;28;20030;-47
2023/01/07 10:23:27;;;;;;;4.35;2.55;;;;;;;;;;4971112;28;20159;-49
2023/01/07 10:25:54;;;;;;;3.38;2.45;;;;;;;;;;4963270;28;20062;-47
2023/01/07 10:28:26;;;;;;;4.43;2.50;;;;;;;;;;4979500;28;20030;-47
2023/01/07 10:30:52;;;;;;;5.28;2.50;;;;;;;;;;4984873;28;20029;-47
2023/01/07 10:33:24;;;;;;;4.63;2.83;;;;;;;;;;4969250;28;20110;-47
2023/01/07 10:35:56;;;;;;;4.05;2.28;;;;;;;;;;4968050;28;20019;-46
2023/01/07 10:38:22;;;;;;;5.70;2.50;;;;;;;;;;4963922;28;20069;-47
2023/01/07 10:41:00;;;;;;;3.47;2.10;;;;;;;;;;4965069;28;20023;-46
2023/01/07 10:43:46;;;;;;;4.13;2.53;;;;;;;;;;4963511;28;20030;-46
2023/01/07 10:46:18;;;;;;;5.32;2.05;;;;;;;;;;4974140;28;20034;-47
2023/01/07 10:48:56;;;;;;;5.07;2.20;;;;;;;;;;4968624;28;20026;-48
2023/01/07 10:51:40;;;;;;;4.78;2.90;;;;;;;;;;4967429;28;21197;-47
2023/01/07 10:54:25;;;;;;;3.75;2.30;;;;;;;;;;4969154;28;20035;-45
2023/01/07 10:56:56;;;;;;;4.30;2.28;;;;;;;;;;4966945;28;20027;-46
2023/01/07 10:59:23;;;;;;;3.83;2.00;;;;;;;;;;4968453;28;20632;-46
2023/01/07 11:01:53;;;;;;;3.95;2.30;;;;;;;;;;4968171;28;20106;-47
2023/01/07 11:04:19;;;;;;;3.92;1.98;;;;;;;;;;4969035;28;20035;-46
2023/01/07 11:06:45;;;;;;;2.33;1.85;;;;;;;;;;4966355;28;20027;-47
2023/01/07 11:09:17;;;;;;;3.95;2.45;;;;;;;;;;4966848;28;20038;-48
2023/01/07 11:11:44;;;;;;;2.80;2.08;;;;;;;;;;4969315;28;20083;-47
2023/01/07 11:14:12;;;;;;;3.15;1.80;;;;;;;;;;4966322;28;20058;-48
2023/01/07 11:16:42;;;;;;;3.72;1.83;;;;;;;;;;4970767;28;20022;-46
2023/01/07 11:19:10;;;;;;;4.32;2.25;;;;;;;;;;4973523;28;20158;-47
2023/01/07 11:21:40;;;;;;;2.55;2.05;;;;;;;;;;4973241;28;20031;-48
2023/01/07 11:24:25;;;;;;;4.43;1.88;;;;;;;;;;4973105;28;20034;-46
2023/01/07 11:26:51;;;;;;;2.20;1.75;;;;;;;;;;4972942;28;20105;-48
2023/01/07 11:29:23;;;;;;;3.47;1.70;;;;;;;;;;4984403;28;20038;-48
2023/01/07 11:31:56;;;;;;;3.47;1.80;;;;;;;;;;4976255;28;20072;-47
2023/01/07 11:34:22;;;;;;;4.07;2.20;;;;;;;;;;4972870;28;20141;-47
2023/01/07 11:36:49;;;;;;;2.50;1.75;;;;;;;;;;4974705;28;20081;-46
2023/01/07 11:39:19;;;;;;;2.42;1.55;;;;;;;;;;4973367;28;20037;-49
2023/01/07 11:45:28;;;;;;;2.47;1.65;;;;;;;;;;4967353;28;20142;-47
2023/01/07 11:47:54;;;;;;;2.15;1.30;;;;;;;;;;4940732;28;20066;-47
2023/01/07 11:50:25;;;;;;;1.90;1.70;;;;;;;;;;4972967;28;20031;-48
2023/01/07 11:52:55;;;;;;;4.60;1.70;;;;;;;;;;4972155;28;20110;-46
2023/01/07 11:55:21;;;;;;;2.55;1.60;;;;;;;;;;4972860;28;20043;-47
2023/01/07 11:57:54;;;;;;;3.40;1.70;;;;;;;;;;4972429;28;20070;-49
2023/01/07 12:00:22;;;;;;;2.25;1.67;;;;;;;;;;4972940;28;20022;-49
2023/01/07 12:03:10;;;;;;;2.53;1.42;;;;;;;;;;4973019;28;20118;-50
2023/01/07 12:05:36;;;;;;;4.13;1.98;;;;;;;;;;4972128;28;20041;-51
2023/01/07 12:08:02;;;;;;;2.58;1.70;;;;;;;;;;4973345;28;20680;-52
2023/01/07 12:10:28;;;;;;;2.28;1.70;;;;;;;;;;4972960;28;20383;-49
2023/01/07 12:12:54;;;;;;;3.53;1.77;;;;;;;;;;4973014;28;20042;-50
2023/01/07 12:15:25;;;;;;;1.80;1.40;;;;;;;;;;4972584;28;20090;-52
2023/01/07 12:18:07;;;;;;;2.67;1.58;;;;;;;;;;4972855;28;20038;-48
2023/01/07 12:20:42;;;;;;;2.67;1.60;;;;;;;;;;4971533;28;20031;-49
2023/01/07 12:23:11;;;;;;;3.53;1.67;;;;;;;;;;4972528;28;20065;-53
2023/01/07 12:25:41;;;;;;;3.45;2.08;;;;;;;;;;4972337;28;20029;-49
2023/01/07 12:28:17;;;;;;;4.00;1.80;;;;;;;;;;4970815;28;20131;-50
2023/01/07 12:30:55;;;;;;;4.03;2.03;;;;;;;;;;4971787;28;20026;-49
2023/01/07 12:33:39;;;;;;;3.17;1.77;;;;;;;;;;4970754;28;20019;-49
2023/01/07 12:36:11;;;;;;;2.63;1.48;;;;;;;;;;4972472;28;20110;-53
2023/01/07 12:38:52;;;;;;;1.88;1.42;;;;;;;;;;4972333;28;20019;-48
2023/01/07 12:41:23;;;;;;;2.97;1.65;;;;;;;;;;4972063;28;20790;-50
2023/01/07 12:43:49;;;;;;;3.45;2.08;;;;;;;;;;4972345;28;20035;-51
2023/01/07 12:46:17;;;;;;;2.80;1.67;;;;;;;;;;4972140;28;20592;-50
2023/01/07 12:48:43;;;;;;;3.85;1.95;;;;;;;;;;4971316;28;20109;-49
2023/01/07 12:51:15;;;;;;;3.40;1.58;;;;;;;;;;4970757;28;20030;-50
2023/01/07 12:53:44;;;;;;;2.80;1.58;;;;;;;;;;4972125;28;20026;-52
2023/01/07 12:56:19;;;;;;;3.33;1.70;;;;;;;;;;4972071;28;20046;-47
2023/01/07 12:58:50;;;;;;;2.50;1.90;;;;;;;;;;4986843;28;20026;-47
2023/01/07 13:01:29;;;;;;;2.95;1.90;;;;;;;;;;4988416;28;20030;-48
2023/01/07 13:04:01;;;;;;;5.00;2.20;;;;;;;;;;4971917;28;20027;-51
2023/01/07 13:06:41;;;;;;;6.30;2.10;;;;;;;;;;4986578;28;20028;-48
2023/01/07 13:09:16;;;;;;;4.10;2.13;;;;;;;;;;4990125;28;20068;-49
2023/01/07 13:14:36;;;;;;;3.67;2.05;;;;;;;;;;4979621;28;20072;-51
2023/01/07 13:17:31;;;;;;;4.38;1.90;;;;;;;;;;4983141;28;20453;-48
2023/01/07 13:19:57;;;;;;;3.22;2.22;;;;;;;;;;4968417;28;20542;-48
2023/01/07 13:22:29;;;;;;;5.03;2.28;;;;;;;;;;4973279;28;20101;-50
2023/01/07 13:25:11;;;;;;;3.40;2.20;;;;;;;;;;4973890;28;20111;-52
2023/01/07 13:27:49;;;;;;;2.35;1.75;;;;;;;;;;4989801;28;20114;-49
2023/01/07 13:30:34;;;;;;;4.32;2.08;;;;;;;;;;4990738;28;20069;-49
2023/01/07 13:33:18;;;;;;;3.05;1.90;;;;;;;;;;4975372;28;20023;-50
2023/01/07 13:36:02;;;;;;;5.15;1.85;;;;;;;;;;4971002;28;20039;-48
2023/01/07 13:38:28;;;;;;;3.83;1.90;;;;;;;;;;4970910;28;20053;-49
2023/01/07 13:41:12;;;;;;;4.20;2.10;;;;;;;;;;4987498;28;20502;-52
2023/01/07 13:43:39;;;;;;;2.22;1.92;;;;;;;;;;4983789;28;20019;-47
2023/01/07 13:46:09;;;;;;;2.83;1.80;;;;;;;;;;4970880;28;20042;-50
2023/01/07 13:48:37;;;;;;;4.05;2.15;;;;;;;;;;4974515;28;20018;-53
2023/01/07 13:51:08;;;;;;;3.85;1.70;;;;;;;;;;4970809;28;20038;-53
2023/01/07 13:53:38;;;;;;;2.78;1.90;;;;;;;;;;4971102;28;20521;-52
2023/01/07 13:56:16;;;;;;;3.85;1.95;;;;;;;;;;4970745;28;20069;-52
2023/01/07 13:58:43;;;;;;;2.65;1.60;;;;;;;;;;4969967;28;20029;-50
2023/01/07 14:01:35;;;;;;;2.70;1.60;;;;;;;;;;4965159;28;20122;-49
2023/01/07 14:04:02;;;;;;;5.18;2.28;;;;;;;;;;4981309;28;20165;-51
2023/01/07 14:06:35;;;;;;;3.78;1.77;;;;;;;;;;4972310;28;20407;-49
2023/01/07 14:09:07;;;;;;;4.88;2.00;;;;;;;;;;4971209;28;20801;-48
2023/01/07 14:11:43;;;;;;;3.83;2.00;;;;;;;;;;4970139;28;20084;-52
2023/01/07 14:14:28;;;;;;;3.83;2.00;;;;;;;;;;4983620;28;20468;-50
2023/01/07 14:17:13;;;;;;;3.50;1.92;;;;;;;;;;4968723;28;20505;-53
2023/01/07 14:20:03;;;;;;;3.58;2.00;;;;;;;;;;4967775;28;20516;-49
2023/01/07 14:22:41;;;;;;;3.08;1.90;;;;;;;;;;4970395;28;20041;-51
2023/01/07 14:25:26;;;;;;;3.47;2.15;;;;;;;;;;4970047;28;20023;-51
2023/01/07 14:27:52;;;;;;;4.10;1.95;;;;;;;;;;4970276;28;20027;-53
2023/01/07 14:30:21;;;;;;;3.85;2.00;;;;;;;;;;4965519;28;20081;-49
2023/01/07 14:33:16;;;;;;;3.75;2.42;;;;;;;;;;4988363;28;20047;-50
2023/01/07 14:35:42;;;;;;;4.60;2.25;;;;;;;;;;4967049;28;20070;-52
2023/01/07 14:38:40;;;;;;;4.68;2.28;;;;;;;;;;4969594;28;20528;-52
2023/01/07 14:41:07;;;;;;;4.05;2.15;;;;;;;;;;4954183;28;20521;-52
2023/01/07 14:43:42;;;;;;;3.90;2.10;;;;;;;;;;4969639;28;20479;-51
2023/01/07 14:46:08;;;;;;;3.72;1.90;;;;;;;;;;4970095;28;20514;-51
2023/01/07 14:48:36;;;;;;;5.30;2.40;;;;;;;;;;4969160;28;20034;-51
2023/01/07 14:51:05;;;;;;;3.90;2.30;;;;;;;;;;4969936;28;20026;-48
2023/01/07 14:53:50;;;;;;;3.50;2.17;;;;;;;;;;4969872;28;20027;-51
2023/01/07 14:56:34;;;;;;;5.68;2.47;;;;;;;;;;4969821;28;20034;-50
2023/01/07 14:59:15;;;;;;;3.03;1.90;;;;;;;;;;4970293;28;20082;-52
2023/01/07 15:01:47;;;;;;;5.15;2.20;;;;;;;;;;4964755;28;20027;-52
2023/01/07 15:04:22;;;;;;;5.30;2.40;;;;;;;;;;4961940;28;20367;-53
2023/01/07 15:06:50;;;;;;;5.75;2.15;;;;;;;;;;4966734;28;20085;-51
2023/01/07 15:17:40;;;;;;;5.70;1.70;;;;;;;;;;4969771;28;20041;-50
2023/01/07 15:20:06;;;;;;;3.38;1.70;;;;;;;;;;4969800;28;20035;-48
2023/01/07 15:22:41;;;;;;;3.65;1.80;;;;;;;;;;4968563;28;20101;-50
2023/01/07 15:25:10;;;;;;;5.55;2.20;;;;;;;;;;4969291;28;20798;-50
2023/01/07 15:27:36;;;;;;;2.70;1.85;;;;;;;;;;4969282;28;20748;-52
2023/01/07 15:30:02;;;;;;;4.32;1.90;;;;;;;;;;4968825;28;20035;-51
2023/01/07 15:32:47;;;;;;;3.05;1.83;;;;;;;;;;4969385;28;20034;-51
2023/01/07 15:35:18;;;;;;;3.58;2.30;;;;;;;;;;4969484;28;20023;-50
2023/01/07 15:37:48;;;;;;;3.97;1.80;;;;;;;;;;4969431;28;20038;-51
2023/01/07 15:40:18;;;;;;;3.17;2.10;;;;;;;;;;4969080;28;20035;-51
2023/01/07 15:42:46;;;;;;;4.47;1.83;;;;;;;;;;4962268;28;20831;-51
2023/01/07 15:45:22;;;;;;;3.30;1.98;;;;;;;;;;4968197;28;20023;-53
2023/01/07 15:47:49;;;;;;;3.15;1.98;;;;;;;;;;4966628;28;20109;-49
2023/01/07 15:50:32;;;;;;;4.50;1.75;;;;;;;;;;4969713;28;20023;-49
2023/01/07 15:53:10;;;;;;;2.90;2.00;;;;;;;;;;4967450;28;20030;-47
2023/01/07 15:55:38;;;;;;;4.43;2.05;;;;;;;;;;4966436;28;20030;-52
2023/01/07 15:58:06;;;;;;;3.15;2.22;;;;;;;;;;4969269;28;20636;-50
2023/01/07 16:00:33;;;;;;;5.40;2.30;;;;;;;;;;4969100;28;20038;-47
2023/01/07 16:03:00;;;;;;;6.00;2.47;;;;;;;;;;4971120;28;20084;-51
2023/01/07 16:05:26;;;;;;;5.35;2.30;;;;;;;;;;4970489;28;20031;-48
2023/01/07 16:07:54;;;;;;;3.17;2.00;;;;;;;;;;4971730;28;20082;-52
2023/01/07 16:10:20;;;;;;;3.33;2.22;;;;;;;;;;4971555;28;20031;-51
2023/01/07 16:12:50;;;;;;;2.40;1.73;;;;;;;;;;4970381;28;20031;-51
2023/01/07 16:15:20;;;;;;;2.95;1.95;;;;;;;;;;4972365;28;20042;-50
2023/01/07 16:17:56;;;;;;;5.35;3.10;;;;;;;;;;4972466;28;20111;-48
2023/01/07 16:20:23;;;;;;;4.95;2.47;;;;;;;;;;4971336;28;20027;-51
2023/01/07 16:22:50;;;;;;;5.38;3.05;;;;;;;;;;4972118;28;20034;-50
2023/01/07 16:25:21;;;;;;;6.32;3.50;;;;;;;;;;4968796;28;20505;-48
2023/01/07 16:27:47;;;;;;;4.68;3.13;;;;;;;;;;4965131;28;20045;-50
2023/01/07 16:30:14;;;;;;;3.80;2.70;;;;;;;;;;4971359;28;20030;-51
2023/01/07 16:32:40;;;;;;;3.97;2.40;;;;;;;;;;4970998;28;20070;-50
2023/01/07 16:35:11;;;;;;;3.60;2.20;;;;;;;;;;4969722;28;20177;-52
2023/01/07 16:37:38;;;;;;;3.53;2.28;;;;;;;;;;4972796;28;20656;-53
2023/01/07 16:40:09;;;;;;;3.63;2.20;;;;;;;;;;4971196;28;20405;-50
2023/01/07 16:42:36;;;;;;;5.10;2.40;;;;;;;;;;4970781;28;20039;-53
2023/01/07 16:45:03;;;;;;;4.03;2.30;;;;;;;;;;4966696;28;20102;-52
2023/01/07 16:47:33;;;;;;;4.20;2.70;;;;;;;;;;4971362;28;20560;-47
2023/01/07 16:50:14;;;;;;;3.25;2.30;;;;;;;;;;4968057;28;20183;-50
2023/01/07 16:52:53;;;;;;;2.53;1.95;;;;;;;;;;4966942;28;20043;-51
2023/01/07 16:55:38;;;;;;;3.88;2.20;;;;;;;;;;4971147;28;20026;-50
2023/01/07 16:58:14;;;;;;;4.85;2.03;;;;;;;;;;4971876;28;20169;-52
2023/01/07 17:00:47;;;;;;;2.13;1.92;;;;;;;;;;4971610;28;20057;-50
2023/01/07 17:03:13;;;;;;;2.80;1.90;;;;;;;;;;4971497;28;20187;-51
2023/01/07 17:05:39;;;;;;;4.75;2.08;;;;;;;;;;4970800;28;20068;-49
2023/01/07 17:08:07;;;;;;;4.03;2.30;;;;;;;;;;4971385;28;20497;-50
2023/01/07 17:10:39;;;;;;;3.78;2.60;;;;;;;;;;4970644;28;20045;-52
2023/01/07 17:13:14;;;;;;;4.72;2.85;;;;;;;;;;4970861;28;20023;-52
2023/01/07 17:15:42;;;;;;;4.00;2.13;;;;;;;;;;4971360;28;20039;-49
2023/01/07 17:18:11;;;;;;;3.85;2.22;;;;;;;;;;4971067;28;20038;-51
2023/01/07 17:20:44;;;;;;;4.28;2.67;;;;;;;;;;4971519;28;20066;-53
2023/01/07 17:23:30;;;;;;;3.85;2.25;;;;;;;;;;4971019;28;20022;-53
2023/01/07 17:26:03;;;;;;;4.68;2.40;;;;;;;;;;4978349;28;20394;-52
2023/01/07 17:28:34;;;;;;;5.03;2.47;;;;;;;;;;4970035;28;20031;-49
2023/01/07 17:31:01;;;;;;;4.68;2.58;;;;;;;;;;4968797;28;20054;-51
2023/01/07 17:33:27;;;;;;;6.55;3.30;;;;;;;;;;4970300;28;20565;-52
2023/01/07 17:35:53;;;;;;;5.78;3.38;;;;;;;;;;4969530;28;20047;-52
2023/01/07 17:38:19;;;;;;;8.18;3.38;;;;;;;;;;4970442;28;20530;-51
2023/01/07 17:40:46;;;;;;;6.13;3.55;;;;;;;;;;4969862;28;20027;-52
2023/01/07 17:43:36;;;;;;;5.43;2.85;;;;;;;;;;4970287;28;20573;-50
2023/01/07 17:46:06;;;;;;;3.70;2.75;;;;;;;;;;4969462;28;20035;-53
2023/01/07 17:48:32;;;;;;;4.10;2.28;;;;;;;;;;4953046;28;20034;-48
2023/01/07 17:50:59;;;;;;;4.13;2.33;;;;;;;;;;4969178;28;20058;-52
2023/01/07 17:53:30;;;;;;;5.00;2.20;;;;;;;;;;4969894;28;20498;-51
2023/01/07 17:55:56;;;;;;;2.88;2.10;;;;;;;;;;4988199;28;20168;-49
2023/01/07 17:58:26;;;;;;;4.18;2.05;;;;;;;;;;4969829;28;20114;-51
2023/01/07 18:00:52;;;;;;;4.25;2.28;;;;;;;;;;4968664;28;20042;-53
2023/01/07 18:03:18;;;;;;;3.15;2.00;;;;;;;;;;4969806;28;20615;-49
2023/01/07 18:05:44;;;;;;;4.45;2.17;;;;;;;;;;4968448;28;20034;-52
2023/01/07 18:08:10;;;;;;;4.40;2.75;;;;;;;;;;4969225;28;20042;-53
2023/01/07 18:13:21;;;;;;;5.68;2.67;;;;;;;;;;4969458;28;20172;-51
2023/01/07 18:15:48;;;;;;;4.05;2.45;;;;;;;;;;4969713;28;20070;-51
2023/01/07 18:18:14;;;;;;;3.58;2.22;;;;;;;;;;4968715;28;20446;-51
2023/01/07 18:20:40;;;;;;;4.70;2.00;;;;;;;;;;4969491;28;20037;-50
2023/01/07 18:23:06;;;;;;;4.65;2.65;;;;;;;;;;4969636;28;20536;-50
2023/01/07 18:25:32;;;;;;;4.18;2.35;;;;;;;;;;4968707;28;20058;-51
2023/01/07 18:27:58;;;;;;;5.53;2.58;;;;;;;;;;4968829;28;20517;-51
2023/01/07 18:30:24;;;;;;;2.92;2.42;;;;;;;;;;4967471;28;20035;-49
2023/01/07 18:32:52;;;;;;;3.67;2.80;;;;;;;;;;4967145;28;20041;-50
2023/01/07 18:35:18;;;;;;;4.00;2.80;;;;;;;;;;4967358;28;20175;-49
2023/01/07 18:37:47;;;;;;;6.80;3.10;;;;;;;;;;4967029;28;20034;-50
2023/01/07 18:40:14;;;;;;;4.35;2.50;;;;;;;;;;4949832;28;20474;-48
2023/01/07 18:42:40;;;;;;;5.05;2.65;;;;;;;;;;4966440;28;20027;-49
2023/01/07 18:45:07;;;;;;;4.10;2.72;;;;;;;;;;4967695;28;20470;-49
2023/01/07 18:47:33;;;;;;;4.28;2.53;;;;;;;;;;4966583;28;20054;-50
2023/01/07 18:49:59;;;;;;;5.38;2.72;;;;;;;;;;4969077;28;20506;-52
2023/01/07 18:52:25;;;;;;;3.60;2.22;;;;;;;;;;4958848;28;20035;-48
2023/01/07 18:54:52;;;;;;;4.35;1.90;;;;;;;;;;4965388;28;20446;-49
2023/01/07 18:57:18;;;;;;;2.78;1.92;;;;;;;;;;4966503;28;20043;-52
2023/01/07 18:59:44;;;;;;;4.50;2.75;;;;;;;;;;4966910;28;20039;-50
2023/01/07 19:02:14;;;;;;;4.00;2.15;;;;;;;;;;4966520;28;20105;-47
2023/01/07 19:04:40;;;;;;;4.38;2.58;;;;;;;;;;4966255;28;20029;-50
2023/01/07 19:07:07;;;;;;;7.18;3.22;;;;;;;;;;4964569;28;20031;-51
2023/01/07 19:09:33;;;;;;;4.60;2.72;;;;;;;;;;4967140;28;20030;-49
2023/01/07 19:11:59;;;;;;;3.90;2.25;;;;;;;;;;4966779;28;20042;-51
2023/01/07 19:14:25;;;;;;;3.08;2.20;;;;;;;;;;4966443;28;20084;-51
2023/01/07 19:16:51;;;;;;;5.38;2.60;;;;;;;;;;4966102;28;20490;-51
2023/01/07 19:19:17;;;;;;;7.07;2.97;;;;;;;;;;4966555;28;20026;-52
2023/01/07 19:21:45;;;;;;;3.28;2.25;;;;;;;;;;4965849;28;20432;-51
2023/01/07 19:24:11;;;;;;;4.78;2.38;;;;;;;;;;4965223;28;20027;-50
2023/01/07 19:26:37;;;;;;;3.85;2.15;;;;;;;;;;4966383;28;20502;-52
2023/01/07 19:29:03;;;;;;;3.13;2.38;;;;;;;;;;4965993;28;20030;-51
2023/01/07 19:31:29;;;;;;;5.13;2.40;;;;;;;;;;4967043;28;20045;-50
2023/01/07 19:33:56;;;;;;;3.72;2.25;;;;;;;;;;4966603;28;20031;-48
2023/01/07 19:36:22;;;;;;;3.55;2.20;;;;;;;;;;4949049;28;20117;-52
2023/01/07 19:38:49;;;;;;;3.15;2.20;;;;;;;;;;4970008;28;20577;-53
2023/01/07 19:41:16;;;;;;;2.70;1.77;;;;;;;;;;4968981;28;20043;-51
2023/01/07 19:43:44;;;;;;;3.40;2.00;;;;;;;;;;4970075;28;20019;-52
2023/01/07 19:46:10;;;;;;;5.38;2.85;;;;;;;;;;4970211;28;20161;-50
2023/01/07 19:48:37;;;;;;;4.30;2.22;;;;;;;;;;4948365;28;20030;-49
2023/01/07 19:51:04;;;;;;;4.65;2.67;;;;;;;;;;4951588;28;20058;-52
2023/01/07 19:53:30;;;;;;;8.00;5.20;;;;;;;;;;4954614;28;20034;-51
2023/01/07 19:56:00;;;;;;;9.45;5.95;;;;;;;;;;4972133;28;20018;-52
2023/01/07 19:58:28;;;;;;;9.20;4.20;;;;;;;;;;4966053;28;20033;-49
2023/01/07 20:00:54;;;;;;;6.38;2.70;;;;;;;;;;4955757;28;20109;-50
2023/01/07 20:03:20;;;;;;;4.47;2.65;;;;;;;;;;4956132;28;20280;-49
2023/01/07 20:05:46;;;;;;;2.55;2.25;;;;;;;;;;4957979;28;20027;-51
2023/01/07 20:08:12;;;;;;;4.72;2.75;;;;;;;;;;4961898;28;20031;-52
2023/01/07 20:10:38;;;;;;;6.13;3.28;;;;;;;;;;4970582;28;20027;-52
2023/01/07 20:13:05;;;;;;;4.28;2.72;;;;;;;;;;4953184;28;20521;-49
2023/01/07 20:15:31;;;;;;;4.45;3.22;;;;;;;;;;4972120;28;20042;-53
2023/01/07 20:17:57;;;;;;;5.72;2.75;;;;;;;;;;4968917;28;20413;-52
2023/01/07 20:20:23;;;;;;;4.25;3.13;;;;;;;;;;4955180;28;20026;-52
2023/01/07 20:22:51;;;;;;;4.40;2.80;;;;;;;;;;4976980;28;20391;-52
2023/01/07 20:25:17;;;;;;;6.28;3.15;;;;;;;;;;4972134;28;20529;-53